Time;durP1;ratioP1;P1;durP2;ratioP2;P2;SDS_P1;SDS_P2;PMS_P1;PMS_P2;Temp;Humidity;BMP_temperature;BMP_pressure;BME280_temperature;BME280_humidity;BME280_pressure;Samples;Min_cycle;Max_cycle;Signal;HPM_P1;HPM_P2
2023/08/16 20:27:37;;;;;;;0.73;0.73;;;;;;;;;;7381182;19;20639;-86
2023/08/16 21:27:38;;;;;;;0.50;0.50;;;;;;;;;;7349437;19;20403;-88
2023/08/16 21:30:11;;;;;;;0.45;0.45;;;;;;;;;;7389062;19;21039;-88
2023/08/16 21:32:43;;;;;;;0.40;0.40;;;;;;;;;;7391701;19;20416;-89
2023/08/16 21:35:19;;;;;;;0.50;0.50;;;;;;;;;;7389448;19;20164;-89
2023/08/16 21:44:37;;;;;;;;;;;;;;;;;;7400082;19;19921;-89
2023/08/16 21:47:04;;;;;;;;;;;;;;;;;;7390562;19;19926;-89
2023/08/16 21:49:30;;;;;;;;;;;;;;;;;;7388102;19;19911;-88
2023/08/16 21:51:57;;;;;;;0.60;0.50;;;;;;;;;;7386698;19;20774;-88
2023/08/16 21:54:26;;;;;;;0.50;0.40;;;;;;;;;;7386886;19;20364;-88
2023/08/16 21:56:53;;;;;;;0.50;0.50;;;;;;;;;;7389119;19;20385;-89
2023/08/16 21:59:20;;;;;;;0.50;0.50;;;;;;;;;;7394349;19;21001;-88
2023/08/16 22:01:47;;;;;;;0.40;0.40;;;;;;;;;;7392586;19;20416;-88
2023/08/16 22:04:14;;;;;;;0.70;0.70;;;;;;;;;;7384270;19;20351;-88
2023/08/16 22:06:41;;;;;;;0.47;0.47;;;;;;;;;;7385120;19;20369;-89
2023/08/16 22:09:09;;;;;;;0.50;0.50;;;;;;;;;;7387578;19;20391;-89
2023/08/16 22:11:36;;;;;;;0.52;0.50;;;;;;;;;;7386490;19;20357;-89
2023/08/16 22:14:02;;;;;;;0.80;0.40;;;;;;;;;;7386915;19;20500;-89
2023/08/16 22:16:29;;;;;;;0.40;0.40;;;;;;;;;;7383915;19;20360;-89
2023/08/16 22:18:56;;;;;;;0.50;0.50;;;;;;;;;;7384098;19;20353;-89
2023/08/16 22:21:26;;;;;;;0.55;0.55;;;;;;;;;;7385892;19;20390;-89
2023/08/16 22:23:52;;;;;;;0.60;0.60;;;;;;;;;;7386377;19;20358;-89
2023/08/16 22:26:19;;;;;;;0.47;0.47;;;;;;;;;;7385194;19;20333;-89
2023/08/16 22:28:53;;;;;;;0.63;0.63;;;;;;;;;;7387009;19;20328;-89
2023/08/16 22:31:21;;;;;;;0.70;0.70;;;;;;;;;;7383363;19;20850;-88
2023/08/16 22:33:48;;;;;;;1.17;0.80;;;;;;;;;;7380372;19;20349;-91
2023/08/16 22:36:14;;;;;;;0.50;0.50;;;;;;;;;;7382998;19;20388;-87
2023/08/16 22:38:41;;;;;;;0.40;0.40;;;;;;;;;;7406399;19;20370;-91
2023/08/16 22:41:08;;;;;;;0.43;0.43;;;;;;;;;;7418012;19;20353;-92
2023/08/16 22:43:35;;;;;;;0.50;0.50;;;;;;;;;;7419336;19;20356;-91
2023/08/16 22:46:02;;;;;;;0.55;0.50;;;;;;;;;;7419963;19;20341;-91
2023/08/16 22:48:29;;;;;;;0.55;0.55;;;;;;;;;;7419693;19;20361;-89
2023/08/16 22:50:55;;;;;;;0.50;0.50;;;;;;;;;;7417231;19;20349;-87
2023/08/16 22:53:22;;;;;;;0.60;0.60;;;;;;;;;;7418763;19;20372;-88
2023/08/16 22:55:49;;;;;;;0.38;0.38;;;;;;;;;;7391535;19;20389;-88
2023/08/16 22:58:15;;;;;;;0.60;0.60;;;;;;;;;;7386088;19;20882;-89
2023/08/16 23:00:42;;;;;;;0.60;0.60;;;;;;;;;;7386677;19;20404;-89
2023/08/16 23:03:09;;;;;;;1.10;0.70;;;;;;;;;;7384830;19;20855;-89
2023/08/16 23:05:36;;;;;;;0.70;0.70;;;;;;;;;;7384104;19;20350;-90
2023/08/16 23:08:03;;;;;;;0.43;0.43;;;;;;;;;;7382222;19;20355;-88
2023/08/16 23:10:29;;;;;;;0.60;0.60;;;;;;;;;;7382721;19;20351;-87
2023/08/16 23:12:56;;;;;;;0.50;0.50;;;;;;;;;;7383004;19;20352;-89
2023/08/16 23:15:23;;;;;;;0.40;0.40;;;;;;;;;;7383119;19;20365;-89
2023/08/16 23:17:49;;;;;;;0.68;0.68;;;;;;;;;;7384938;19;20353;-88
2023/08/16 23:20:16;;;;;;;0.47;0.47;;;;;;;;;;7382108;19;20359;-88
2023/08/16 23:22:43;;;;;;;0.50;0.50;;;;;;;;;;7382836;19;20352;-87
2023/08/16 23:25:10;;;;;;;0.77;0.77;;;;;;;;;;7383240;19;20700;-87
2023/08/16 23:27:37;;;;;;;0.52;0.52;;;;;;;;;;7383494;19;20340;-88
2023/08/16 23:30:04;;;;;;;0.60;0.60;;;;;;;;;;7383683;19;20324;-88
2023/08/16 23:32:31;;;;;;;0.38;0.38;;;;;;;;;;7385288;19;20369;-87
2023/08/16 23:34:58;;;;;;;0.40;0.40;;;;;;;;;;7382335;19;20369;-87
2023/08/16 23:37:25;;;;;;;9.68;0.75;;;;;;;;;;7381460;19;20840;-88
2023/08/16 23:39:52;;;;;;;0.40;0.40;;;;;;;;;;7380635;19;20992;-89
2023/08/16 23:42:21;;;;;;;0.90;0.90;;;;;;;;;;7381644;19;20341;-89
2023/08/16 23:44:48;;;;;;;0.70;0.70;;;;;;;;;;7383346;19;20362;-88
2023/08/16 23:47:14;;;;;;;0.70;0.70;;;;;;;;;;7379675;19;20353;-87
2023/08/16 23:49:41;;;;;;;0.50;0.50;;;;;;;;;;7380183;19;20746;-88
2023/08/16 23:52:08;;;;;;;0.55;0.55;;;;;;;;;;7378098;19;20704;-88
2023/08/16 23:54:35;;;;;;;0.60;0.60;;;;;;;;;;7380765;19;20885;-88
2023/08/16 23:57:04;;;;;;;0.50;0.50;;;;;;;;;;7380791;19;20372;-87
2023/08/16 23:59:30;;;;;;;0.40;0.40;;;;;;;;;;7381548;19;20352;-89
